createdAt,value
2024-04-23T22:08:48.721Z,50.875290
2024-04-23T22:09:48.711Z,50.875229
2024-04-23T22:10:48.751Z,50.875301
2024-04-23T22:11:48.807Z,50.875423
2024-04-23T22:12:48.688Z,50.875450
2024-04-23T22:13:48.677Z,50.875866
2024-04-23T22:14:48.655Z,50.875561
2024-04-23T22:15:48.640Z,50.875542
2024-04-23T22:16:48.711Z,50.875469
2024-04-23T22:17:48.780Z,50.875469
2024-04-23T22:18:48.710Z,50.875595
2024-04-23T22:19:48.651Z,50.875549
2024-04-23T22:20:48.593Z,50.875698
2024-04-23T22:21:48.586Z,50.875858
2024-04-23T22:22:48.609Z,50.875858
2024-04-23T22:23:48.562Z,50.875858
2024-04-23T22:24:48.553Z,50.875858
2024-04-23T22:25:48.559Z,50.875858
2024-04-23T22:26:48.530Z,50.875858
2024-04-23T22:27:48.537Z,50.875858
2024-04-23T22:28:48.563Z,50.875858
2024-04-23T22:29:48.501Z,50.875858
2024-04-23T22:30:48.498Z,50.875858
2024-04-23T22:31:48.491Z,50.875858
2024-04-23T22:32:49.511Z,50.875858
2024-04-23T22:33:48.525Z,50.875858
2024-04-23T22:34:48.493Z,50.875858
2024-04-23T22:35:48.448Z,50.875858
2024-04-23T22:36:48.442Z,50.875973
2024-04-23T22:37:48.435Z,50.876007
2024-04-23T22:38:49.414Z,50.875900
2024-04-23T22:39:48.405Z,50.875851
2024-04-23T22:40:48.438Z,50.875610
2024-04-23T22:41:48.406Z,50.876186
2024-04-23T22:42:48.369Z,50.876160
2024-04-23T22:43:48.382Z,50.876160
2024-04-23T22:44:48.349Z,50.876125
2024-04-23T22:45:48.344Z,50.875702
2024-04-23T22:46:48.349Z,50.875702
2024-04-23T22:47:48.384Z,50.875492
2024-04-23T22:48:48.442Z,50.875538
2024-04-23T22:49:48.349Z,50.875683
2024-04-23T22:50:48.305Z,50.875885
2024-04-23T22:51:48.323Z,50.876324
2024-04-23T22:52:48.296Z,50.891624
2024-04-23T22:53:48.260Z,50.891624
2024-04-23T22:54:48.246Z,50.891624
2024-04-23T22:55:48.265Z,50.918053
2024-04-23T22:56:48.241Z,50.918053
2024-04-23T22:57:48.216Z,50.918053
2024-04-23T22:58:48.220Z,50.918053
2024-04-23T22:59:48.203Z,50.918053
2024-04-23T23:00:48.191Z,50.918053
2024-04-23T23:01:48.188Z,50.918053
2024-04-23T23:02:48.286Z,50.918053
2024-04-23T23:03:48.166Z,50.918053
2024-04-23T23:04:48.185Z,50.918053
2024-04-23T23:05:48.137Z,50.918053
2024-04-23T23:06:48.154Z,50.918053
2024-04-23T23:07:48.147Z,50.918053
2024-04-23T23:08:48.110Z,50.918053
2024-04-23T23:09:48.103Z,50.918053
2024-04-23T23:10:48.189Z,50.918053
2024-04-23T23:11:48.194Z,50.918053
2024-04-23T23:12:48.061Z,50.918053
2024-04-23T23:13:48.067Z,50.918053
2024-04-23T23:14:48.050Z,50.918053
2024-04-23T23:15:48.039Z,50.918053
2024-04-23T23:16:48.086Z,50.918053
2024-04-23T23:17:48.021Z,50.918053
2024-04-23T23:18:47.996Z,50.918053
2024-04-23T23:19:48.034Z,50.918053
2024-04-23T23:20:47.991Z,50.918053
2024-04-23T23:21:47.964Z,50.918053
2024-04-23T23:22:50.093Z,50.918053
2024-04-23T23:23:48.959Z,50.918053
2024-04-23T23:24:47.980Z,50.918053
2024-04-23T23:25:47.991Z,50.918053
2024-04-23T23:26:47.920Z,50.918053
2024-04-23T23:27:47.912Z,50.918053
2024-04-23T23:28:47.919Z,50.918053
2024-04-23T23:29:47.898Z,50.918053
2024-04-23T23:30:47.876Z,50.918053
2024-04-23T23:31:47.889Z,50.918053
2024-04-23T23:32:47.977Z,50.918053
2024-04-23T23:33:47.905Z,50.918053
2024-04-23T23:34:47.883Z,50.918053
2024-04-23T23:35:47.828Z,50.918053
2024-04-23T23:36:47.818Z,50.918053
2024-04-23T23:37:47.839Z,50.918053
2024-04-23T23:38:47.816Z,50.918053
2024-04-23T23:39:48.782Z,50.918053
2024-04-23T23:40:47.836Z,50.918053
2024-04-23T23:41:47.763Z,50.918053
2024-04-23T23:42:47.772Z,50.918053
2024-04-23T23:43:47.778Z,50.918053
2024-04-23T23:44:47.733Z,50.918053
2024-04-23T23:45:47.720Z,50.918053
2024-04-23T23:46:47.794Z,50.918053
2024-04-23T23:47:47.840Z,50.918053
2024-04-23T23:48:47.733Z,50.918053
2024-04-23T23:49:47.733Z,50.918053
2024-04-23T23:50:47.687Z,50.918053
2024-04-23T23:51:47.662Z,50.918053
2024-04-23T23:52:47.685Z,50.918053
2024-04-23T23:53:47.651Z,50.918053
2024-04-23T23:54:47.654Z,50.918053
2024-04-23T23:55:47.644Z,50.918053
2024-04-23T23:56:47.617Z,50.918053
2024-04-23T23:57:47.611Z,50.918053
2024-04-23T23:58:47.631Z,50.918053
2024-04-23T23:59:47.570Z,50.918053
